< < Back
Terminal Aerodrome Forecast


Current Version              Previous Versions:   1  2  3  4  5  6  7  8  9  

Terminal Aerodrome Forecast

839
FTUS42 KFFC 221742 CCA
TAFMCN
TAF COR
KMCN 221742Z 2218/2318 09009KT 6SM BR VCSH OVC008
     FM230300 10008KT 4SM -DZ BR OVC004
     FM230800 11008KT 1SM -DZ BR OVC002
     FM231500 13007KT 2SM -SHRA BR OVC008=

Latest METAR

933
SAUS80 KWBC 222000
MTRMCN
METAR KMCN 221953Z 10004KT 2SM -RA BR OVC006 09/09 A2994 RMK AO2
RAE08B44 SLP139 P0000 T00890089


USA.gov is the U.S. government's official web portal to all federal, state and local government web resources and services.